Time;durP1;ratioP1;P1;durP2;ratioP2;P2;SDS_P1;SDS_P2;PMS_P1;PMS_P2;Temp;Humidity;BMP_temperature;BMP_pressure;BME280_temperature;BME280_humidity;BME280_pressure;Samples;Min_cycle;Max_cycle;Signal;HPM_P1;HPM_P2
2021/04/14 00:00:49;;;;;;;5.25;1.45;;;;;;;;;;5043648;28;20947;-60
2021/04/14 00:03:28;;;;;;;2.83;1.23;;;;;;;;;;5041379;28;20045;-60
2021/04/14 00:05:54;;;;;;;1.63;1.00;;;;;;;;;;5045622;28;20120;-58
2021/04/14 00:08:27;;;;;;;6.05;1.35;;;;;;;;;;5039387;28;21192;-59
2021/04/14 00:10:55;;;;;;;8.43;1.40;;;;;;;;;;5025468;28;20067;-59
2021/04/14 00:13:24;;;;;;;4.50;1.00;;;;;;;;;;5042551;28;20016;-60
2021/04/14 00:15:56;;;;;;;5.13;1.15;;;;;;;;;;5040803;28;20821;-59
2021/04/14 00:18:27;;;;;;;6.70;1.02;;;;;;;;;;5023445;28;20211;-59
2021/04/14 00:20:54;;;;;;;1.70;0.70;;;;;;;;;;5027286;28;20082;-59
2021/04/14 00:23:23;;;;;;;4.95;1.05;;;;;;;;;;5044077;28;20119;-59
2021/04/14 00:25:52;;;;;;;8.75;1.63;;;;;;;;;;5042003;28;20028;-59
2021/04/14 00:28:22;;;;;;;1.17;1.08;;;;;;;;;;5043090;28;20495;-59
2021/04/14 00:30:51;;;;;;;6.22;1.50;;;;;;;;;;5044755;28;20075;-59
2021/04/14 00:33:18;;;;;;;1.10;1.00;;;;;;;;;;5042246;28;20028;-59
2021/04/14 00:35:47;;;;;;;2.03;1.13;;;;;;;;;;5044383;28;20472;-59
2021/04/14 00:38:16;;;;;;;1.40;0.90;;;;;;;;;;5044928;28;20044;-59
2021/04/14 00:40:44;;;;;;;5.30;1.08;;;;;;;;;;5045694;28;20039;-58
2021/04/14 00:43:24;;;;;;;5.43;2.00;;;;;;;;;;5043379;28;20039;-59
2021/04/14 00:45:56;;;;;;;9.70;1.23;;;;;;;;;;5042796;28;20032;-59
2021/04/14 00:48:21;;;;;;;1.63;0.52;;;;;;;;;;5043113;28;20125;-59
2021/04/14 00:50:47;;;;;;;1.48;0.60;;;;;;;;;;5044399;28;20028;-59
2021/04/14 00:53:17;;;;;;;0.60;0.60;;;;;;;;;;5030263;28;20043;-59
2021/04/14 00:55:43;;;;;;;6.45;0.70;;;;;;;;;;5042071;28;20119;-60
2021/04/14 00:58:11;;;;;;;0.60;0.60;;;;;;;;;;5028823;28;20043;-60
2021/04/14 01:00:36;;;;;;;1.45;0.95;;;;;;;;;;5045083;28;20118;-58
2021/04/14 01:03:03;;;;;;;0.60;0.60;;;;;;;;;;5047651;28;22063;-58
2021/04/14 01:05:29;;;;;;;0.60;0.60;;;;;;;;;;5045338;28;20529;-58
2021/04/14 01:07:55;;;;;;;3.55;0.95;;;;;;;;;;5045085;28;20035;-58
2021/04/14 01:10:24;;;;;;;2.10;1.00;;;;;;;;;;5046404;28;20236;-59
2021/04/14 01:12:50;;;;;;;1.30;0.60;;;;;;;;;;5042730;28;20035;-58
2021/04/14 01:15:19;;;;;;;1.67;0.70;;;;;;;;;;5044772;28;20101;-59
2021/04/14 01:17:47;;;;;;;2.30;0.77;;;;;;;;;;5043090;28;20043;-59
2021/04/14 01:20:15;;;;;;;2.38;0.55;;;;;;;;;;5018318;28;20487;-59
2021/04/14 01:22:43;;;;;;;0.88;0.75;;;;;;;;;;5042233;28;20025;-59
2021/04/14 01:25:17;;;;;;;0.60;0.50;;;;;;;;;;5027937;28;20037;-59
2021/04/14 01:27:47;;;;;;;5.45;1.02;;;;;;;;;;5041463;28;20038;-59
2021/04/14 01:30:24;;;;;;;2.13;0.77;;;;;;;;;;5038407;28;20151;-59
2021/04/14 01:32:50;;;;;;;1.30;0.85;;;;;;;;;;5044760;28;20029;-59
2021/04/14 01:35:24;;;;;;;0.43;0.43;;;;;;;;;;5043874;28;20734;-58
2021/04/14 01:37:52;;;;;;;0.53;0.50;;;;;;;;;;5033982;28;20063;-58
2021/04/14 01:40:18;;;;;;;0.95;0.80;;;;;;;;;;5041768;28;20025;-59
2021/04/14 01:42:46;;;;;;;0.90;0.60;;;;;;;;;;5042722;28;20464;-58
2021/04/14 01:45:17;;;;;;;4.13;0.68;;;;;;;;;;5044499;28;20035;-58
2021/04/14 01:47:43;;;;;;;1.88;1.33;;;;;;;;;;5044616;28;20552;-58
2021/04/14 01:50:09;;;;;;;9.68;1.02;;;;;;;;;;5036852;28;20048;-58
2021/04/14 01:52:37;;;;;;;1.10;0.73;;;;;;;;;;5045655;28;20039;-58
2021/04/14 01:55:06;;;;;;;3.38;0.80;;;;;;;;;;5027754;28;20033;-59
2021/04/14 01:57:36;;;;;;;0.95;0.88;;;;;;;;;;5042961;28;20193;-59
2021/04/14 02:00:07;;;;;;;1.38;1.02;;;;;;;;;;5017862;28;20044;-58
2021/04/14 02:02:35;;;;;;;1.33;0.90;;;;;;;;;;5045703;28;20085;-58
2021/04/14 02:05:03;;;;;;;1.17;0.95;;;;;;;;;;5044562;28;20076;-59
2021/04/14 02:07:31;;;;;;;4.18;1.38;;;;;;;;;;5037139;28;20042;-58
2021/04/14 02:09:59;;;;;;;2.78;1.08;;;;;;;;;;5043703;28;20036;-58
2021/04/14 02:12:24;;;;;;;0.50;0.50;;;;;;;;;;5036342;28;20067;-58
2021/04/14 02:14:50;;;;;;;1.33;0.80;;;;;;;;;;5042883;28;20151;-61
2021/04/14 02:17:17;;;;;;;0.82;0.80;;;;;;;;;;5058660;28;21167;-58
2021/04/14 02:19:48;;;;;;;1.00;0.40;;;;;;;;;;5042909;28;20204;-58
2021/04/14 02:22:18;;;;;;;0.98;0.60;;;;;;;;;;5024309;28;20047;-58
2021/04/14 02:24:46;;;;;;;1.02;0.57;;;;;;;;;;5046052;28;20032;-57
2021/04/14 02:27:16;;;;;;;4.22;0.98;;;;;;;;;;5024848;28;20043;-58
2021/04/14 02:29:45;;;;;;;2.70;0.75;;;;;;;;;;5041793;28;20686;-59
2021/04/14 02:32:13;;;;;;;3.60;0.98;;;;;;;;;;5044753;28;20663;-59
2021/04/14 02:34:44;;;;;;;7.80;1.45;;;;;;;;;;5048700;28;20028;-58
2021/04/14 02:37:11;;;;;;;3.08;1.08;;;;;;;;;;5042621;28;20043;-58
2021/04/14 02:39:37;;;;;;;4.43;0.80;;;;;;;;;;5043788;28;20492;-58
2021/04/14 02:42:05;;;;;;;1.75;1.20;;;;;;;;;;5041145;28;20121;-59
2021/04/14 02:44:30;;;;;;;0.73;0.63;;;;;;;;;;5042795;28;20028;-58
2021/04/14 02:46:58;;;;;;;1.20;0.77;;;;;;;;;;5027437;28;20682;-58
2021/04/14 02:49:26;;;;;;;0.82;0.65;;;;;;;;;;5041478;28;20543;-58
2021/04/14 02:51:54;;;;;;;4.57;0.50;;;;;;;;;;5042051;28;20039;-58
2021/04/14 02:54:22;;;;;;;0.77;0.57;;;;;;;;;;5008375;28;20033;-59
2021/04/14 02:56:48;;;;;;;0.50;0.50;;;;;;;;;;5043009;28;20167;-58
2021/04/14 02:59:16;;;;;;;0.93;0.57;;;;;;;;;;5041650;28;20083;-59
2021/04/14 03:01:44;;;;;;;0.32;0.25;;;;;;;;;;5043749;28;20429;-58
2021/04/14 03:04:10;;;;;;;0.35;0.32;;;;;;;;;;5034976;28;20055;-59
2021/04/14 03:06:38;;;;;;;3.35;0.70;;;;;;;;;;5028430;28;20036;-58
2021/04/14 03:09:04;;;;;;;1.08;0.47;;;;;;;;;;5042671;28;20665;-58
2021/04/14 03:11:29;;;;;;;0.50;0.50;;;;;;;;;;5046116;28;20023;-58
2021/04/14 03:13:55;;;;;;;0.55;0.35;;;;;;;;;;5042685;28;20024;-58
2021/04/14 03:16:24;;;;;;;3.00;0.70;;;;;;;;;;5035335;28;20214;-58
2021/04/14 03:18:53;;;;;;;2.42;1.27;;;;;;;;;;5044759;28;20730;-59
2021/04/14 03:21:18;;;;;;;0.80;0.52;;;;;;;;;;5040111;28;20033;-59
2021/04/14 03:23:44;;;;;;;3.70;0.40;;;;;;;;;;5044037;28;20033;-59
2021/04/14 03:26:12;;;;;;;1.67;0.70;;;;;;;;;;5042090;28;21089;-59
2021/04/14 03:28:37;;;;;;;0.68;0.63;;;;;;;;;;5044504;28;20040;-59
2021/04/14 03:31:03;;;;;;;0.73;0.40;;;;;;;;;;5043468;28;20032;-59
2021/04/14 03:33:31;;;;;;;3.30;0.60;;;;;;;;;;5043220;28;20793;-59
2021/04/14 03:35:58;;;;;;;0.50;0.50;;;;;;;;;;5023010;28;20051;-59
2021/04/14 03:38:26;;;;;;;0.57;0.50;;;;;;;;;;5041459;28;22199;-58
2021/04/14 03:40:54;;;;;;;1.42;0.60;;;;;;;;;;5028154;28;20051;-58
2021/04/14 03:43:21;;;;;;;0.70;0.40;;;;;;;;;;5041167;28;20024;-59
2021/04/14 03:45:55;;;;;;;0.75;0.60;;;;;;;;;;5044309;28;20044;-59
2021/04/14 03:48:25;;;;;;;7.70;1.33;;;;;;;;;;5040103;28;20403;-58
2021/04/14 03:50:51;;;;;;;0.85;0.60;;;;;;;;;;5026774;28;20041;-58
2021/04/14 03:53:26;;;;;;;0.82;0.70;;;;;;;;;;5050216;28;20135;-58
2021/04/14 03:56:08;;;;;;;6.72;0.88;;;;;;;;;;5043322;28;20051;-58
2021/04/14 03:58:34;;;;;;;0.68;0.52;;;;;;;;;;5026874;28;20062;-58
2021/04/14 04:01:01;;;;;;;0.77;0.60;;;;;;;;;;5041306;28;20048;-58
2021/04/14 04:03:29;;;;;;;2.25;1.40;;;;;;;;;;5042583;28;20483;-58
2021/04/14 04:05:57;;;;;;;12.88;2.67;;;;;;;;;;5044786;28;20098;-58
2021/04/14 04:08:25;;;;;;;2.75;1.83;;;;;;;;;;5042006;28;20033;-59
2021/04/14 04:10:53;;;;;;;6.18;2.33;;;;;;;;;;5042050;28;20028;-58
2021/04/14 04:13:21;;;;;;;2.35;1.30;;;;;;;;;;5041335;28;20176;-59
2021/04/14 04:15:49;;;;;;;2.08;1.45;;;;;;;;;;5044693;28;20485;-58
2021/04/14 04:18:15;;;;;;;2.67;1.08;;;;;;;;;;5033817;28;20475;-58
2021/04/14 04:20:43;;;;;;;0.85;0.63;;;;;;;;;;5041075;28;20059;-59
2021/04/14 04:23:11;;;;;;;3.88;1.02;;;;;;;;;;5042658;28;20658;-58
2021/04/14 04:25:37;;;;;;;5.03;0.57;;;;;;;;;;5032203;28;20032;-59
2021/04/14 04:28:06;;;;;;;1.85;0.65;;;;;;;;;;5037904;28;20492;-58
2021/04/14 04:30:32;;;;;;;1.17;0.95;;;;;;;;;;5050836;28;22003;-58
2021/04/14 04:32:58;;;;;;;1.92;1.10;;;;;;;;;;5040722;28;20051;-59
2021/04/14 04:35:24;;;;;;;4.25;1.80;;;;;;;;;;5040049;28;20029;-58
2021/04/14 04:37:53;;;;;;;10.35;3.88;;;;;;;;;;5041191;28;20925;-58
2021/04/14 04:40:21;;;;;;;7.25;2.40;;;;;;;;;;5025845;28;20074;-59
2021/04/14 04:42:49;;;;;;;3.33;1.65;;;;;;;;;;5036960;28;20037;-59
2021/04/14 04:45:15;;;;;;;3.13;1.17;;;;;;;;;;5037543;28;21233;-59
2021/04/14 04:47:46;;;;;;;4.50;0.70;;;;;;;;;;5040423;28;20110;-58
2021/04/14 04:50:17;;;;;;;1.27;0.65;;;;;;;;;;5038541;28;20249;-57
2021/04/14 04:52:43;;;;;;;3.38;1.15;;;;;;;;;;5041346;28;20052;-58
2021/04/14 04:55:11;;;;;;;3.40;1.17;;;;;;;;;;5039924;28;20047;-58
2021/04/14 04:57:36;;;;;;;1.60;0.93;;;;;;;;;;5034397;28;20072;-58
2021/04/14 05:00:06;;;;;;;0.82;0.82;;;;;;;;;;5026299;28;20068;-58
2021/04/14 05:02:31;;;;;;;0.73;0.65;;;;;;;;;;5038623;28;20033;-58
2021/04/14 05:04:57;;;;;;;3.25;1.20;;;;;;;;;;5025081;28;20401;-58
2021/04/14 05:07:22;;;;;;;1.33;0.90;;;;;;;;;;5043089;28;20028;-58
2021/04/14 05:09:52;;;;;;;3.47;0.77;;;;;;;;;;5041772;28;20024;-59
2021/04/14 05:12:17;;;;;;;2.97;0.60;;;;;;;;;;5045586;28;20074;-59
2021/04/14 05:14:46;;;;;;;7.00;0.88;;;;;;;;;;5013768;28;20029;-59
2021/04/14 05:17:14;;;;;;;0.70;0.70;;;;;;;;;;5042820;28;20040;-60
2021/04/14 05:19:42;;;;;;;0.77;0.52;;;;;;;;;;5044320;28;20151;-59
2021/04/14 05:22:10;;;;;;;0.77;0.50;;;;;;;;;;5043937;28;20041;-59
2021/04/14 05:24:36;;;;;;;2.75;0.70;;;;;;;;;;5044256;28;20039;-59
2021/04/14 05:27:05;;;;;;;6.30;0.73;;;;;;;;;;5029399;28;20041;-59
2021/04/14 05:29:33;;;;;;;0.85;0.65;;;;;;;;;;5040179;28;20037;-59
2021/04/14 05:31:59;;;;;;;2.33;0.57;;;;;;;;;;5041554;28;20036;-59
2021/04/14 05:34:26;;;;;;;3.78;0.88;;;;;;;;;;5022483;28;20029;-59
2021/04/14 05:36:55;;;;;;;5.93;0.82;;;;;;;;;;5042401;28;20042;-59
2021/04/14 05:39:30;;;;;;;5.32;0.80;;;;;;;;;;5045110;28;20041;-59
2021/04/14 05:41:56;;;;;;;0.50;0.50;;;;;;;;;;5043062;28;20137;-60
2021/04/14 05:44:24;;;;;;;1.15;0.90;;;;;;;;;;5042569;28;20546;-59
2021/04/14 05:46:50;;;;;;;0.88;0.80;;;;;;;;;;5042546;28;20041;-59
2021/04/14 05:49:18;;;;;;;2.78;0.85;;;;;;;;;;5045901;28;20040;-59
2021/04/14 05:51:45;;;;;;;0.70;0.70;;;;;;;;;;5042261;28;20033;-58
2021/04/14 05:54:10;;;;;;;2.55;0.65;;;;;;;;;;5024968;28;20102;-58
2021/04/14 05:56:35;;;;;;;1.23;0.55;;;;;;;;;;5029261;28;20090;-59
2021/04/14 05:59:03;;;;;;;1.95;0.70;;;;;;;;;;5043471;28;20527;-59
2021/04/14 06:01:33;;;;;;;0.65;0.50;;;;;;;;;;5041600;28;20033;-60
2021/04/14 06:03:58;;;;;;;1.73;0.63;;;;;;;;;;5045974;28;20033;-60
2021/04/14 06:06:25;;;;;;;0.60;0.60;;;;;;;;;;5041736;28;20039;-61
2021/04/14 06:08:50;;;;;;;0.98;0.75;;;;;;;;;;5032319;28;20032;-60
2021/04/14 06:11:16;;;;;;;2.72;0.50;;;;;;;;;;5044580;28;20032;-60
2021/04/14 06:13:44;;;;;;;1.50;0.63;;;;;;;;;;5046065;28;20772;-60
2021/04/14 06:16:10;;;;;;;0.35;0.35;;;;;;;;;;5048624;28;20040;-59
2021/04/14 06:18:38;;;;;;;0.30;0.30;;;;;;;;;;5044149;28;20047;-59
2021/04/14 06:21:04;;;;;;;1.75;0.50;;;;;;;;;;5030855;28;20500;-59
2021/04/14 06:23:30;;;;;;;4.47;0.95;;;;;;;;;;5029049;28;20086;-59
2021/04/14 06:26:01;;;;;;;1.80;0.45;;;;;;;;;;5037249;28;20091;-60
2021/04/14 06:28:31;;;;;;;0.73;0.40;;;;;;;;;;5045089;28;21087;-59
2021/04/14 06:30:57;;;;;;;0.30;0.30;;;;;;;;;;5046698;28;20031;-59
2021/04/14 06:33:23;;;;;;;2.05;0.30;;;;;;;;;;5047427;28;20028;-59
2021/04/14 06:35:49;;;;;;;4.20;1.02;;;;;;;;;;5028589;28;21082;-59
2021/04/14 06:38:18;;;;;;;1.65;0.38;;;;;;;;;;5043610;28;20021;-59
2021/04/14 06:40:56;;;;;;;1.50;0.45;;;;;;;;;;5045641;28;20123;-58
2021/04/14 06:43:50;;;;;;;2.47;0.55;;;;;;;;;;5029652;28;20032;-58
2021/04/14 06:46:20;;;;;;;1.77;0.45;;;;;;;;;;5043102;28;20028;-58
2021/04/14 06:48:58;;;;;;;5.00;0.82;;;;;;;;;;5044157;28;20128;-59
2021/04/14 06:51:31;;;;;;;4.25;0.38;;;;;;;;;;5045288;28;20028;-59
2021/04/14 06:53:59;;;;;;;;;;;;;;;;;;5046458;28;20025;-59
2021/04/14 06:56:27;;;;;;;2.30;0.52;;;;;;;;;;5045459;28;20363;-58
2021/04/14 06:58:55;;;;;;;5.03;0.70;;;;;;;;;;5043557;28;22057;-58
2021/04/14 07:01:26;;;;;;;2.58;0.50;;;;;;;;;;5041824;28;20960;-59
2021/04/14 07:03:56;;;;;;;1.77;0.40;;;;;;;;;;5042545;28;20028;-59
2021/04/14 07:06:25;;;;;;;2.20;0.65;;;;;;;;;;5043890;28;20036;-60
2021/04/14 07:09:11;;;;;;;7.85;0.95;;;;;;;;;;5046305;28;20040;-60
2021/04/14 07:11:42;;;;;;;1.23;0.50;;;;;;;;;;5041458;28;20163;-60
2021/04/14 07:14:10;;;;;;;3.60;0.73;;;;;;;;;;5030505;28;20031;-62
2021/04/14 07:16:45;;;;;;;6.78;1.10;;;;;;;;;;5030993;28;20055;-60
2021/04/14 07:19:17;;;;;;;1.60;0.68;;;;;;;;;;5043209;28;20029;-60
2021/04/14 07:21:54;;;;;;;6.00;0.80;;;;;;;;;;5042767;28;22046;-61
2021/04/14 07:24:38;;;;;;;7.80;0.57;;;;;;;;;;5046459;28;20024;-61
2021/04/14 07:27:20;;;;;;;8.18;0.50;;;;;;;;;;5021029;28;20031;-59
2021/04/14 07:29:50;;;;;;;0.30;0.30;;;;;;;;;;5047425;28;21124;-60
2021/04/14 07:32:23;;;;;;;5.68;0.98;;;;;;;;;;5044333;28;20121;-60
2021/04/14 07:35:09;;;;;;;5.05;0.55;;;;;;;;;;5044100;28;20136;-60
2021/04/14 07:37:56;;;;;;;2.55;0.38;;;;;;;;;;5040801;28;20024;-61
2021/04/14 07:40:37;;;;;;;10.50;0.65;;;;;;;;;;5046097;28;20036;-59
2021/04/14 07:43:22;;;;;;;1.95;0.68;;;;;;;;;;5042880;28;20016;-60
2021/04/14 07:45:52;;;;;;;5.20;0.70;;;;;;;;;;5044619;28;20080;-60
2021/04/14 07:48:29;;;;;;;3.67;0.70;;;;;;;;;;5038863;28;20229;-60
2021/04/14 07:51:00;;;;;;;9.85;0.73;;;;;;;;;;5044919;28;20035;-60
2021/04/14 07:53:29;;;;;;;4.32;0.93;;;;;;;;;;5020861;28;20021;-60
2021/04/14 07:56:22;;;;;;;1.08;0.47;;;;;;;;;;5036526;28;20067;-60
2021/04/14 07:58:51;;;;;;;4.32;0.75;;;;;;;;;;5041010;28;20049;-61
2021/04/14 08:01:18;;;;;;;5.40;0.30;;;;;;;;;;5043768;28;20024;-61
2021/04/14 08:03:44;;;;;;;2.50;0.40;;;;;;;;;;5041032;28;20036;-63
2021/04/14 08:06:13;;;;;;;7.97;0.50;;;;;;;;;;5044254;28;20548;-61
2021/04/14 08:08:42;;;;;;;2.42;0.50;;;;;;;;;;5041511;28;20040;-60
2021/04/14 08:11:12;;;;;;;3.17;0.40;;;;;;;;;;5042430;28;20071;-59
2021/04/14 08:13:41;;;;;;;1.48;0.30;;;;;;;;;;5044160;28;20075;-59
2021/04/14 08:16:14;;;;;;;1.58;0.40;;;;;;;;;;5036760;28;20029;-60
2021/04/14 08:18:52;;;;;;;3.53;0.43;;;;;;;;;;5040415;28;20020;-60
2021/04/14 08:21:32;;;;;;;0.98;0.40;;;;;;;;;;5028402;28;20141;-60
2021/04/14 08:24:05;;;;;;;3.50;0.30;;;;;;;;;;5042025;28;20044;-60
2021/04/14 08:26:31;;;;;;;3.53;0.40;;;;;;;;;;5041985;28;21096;-60
2021/04/14 08:29:08;;;;;;;2.70;0.68;;;;;;;;;;5042655;28;20066;-60
2021/04/14 08:31:36;;;;;;;2.13;0.40;;;;;;;;;;5044591;28;20033;-60
2021/04/14 08:34:30;;;;;;;2.80;0.40;;;;;;;;;;5035173;28;20032;-60
2021/04/14 08:36:59;;;;;;;4.80;0.40;;;;;;;;;;5024937;28;20047;-60
2021/04/14 08:39:39;;;;;;;0.60;0.35;;;;;;;;;;5043337;28;20029;-60
2021/04/14 08:42:17;;;;;;;2.08;0.52;;;;;;;;;;5062955;28;20885;-60
2021/04/14 08:44:44;;;;;;;4.03;0.40;;;;;;;;;;5048708;28;20036;-62
2021/04/14 08:47:12;;;;;;;3.00;0.40;;;;;;;;;;5020452;28;20783;-62
2021/04/14 08:49:41;;;;;;;2.47;0.40;;;;;;;;;;5048254;28;20024;-60
2021/04/14 08:52:09;;;;;;;2.97;0.73;;;;;;;;;;5049411;28;20040;-62
2021/04/14 08:54:35;;;;;;;2.28;0.45;;;;;;;;;;5047918;28;20024;-60
2021/04/14 08:57:00;;;;;;;1.63;0.47;;;;;;;;;;5045374;28;20043;-60
2021/04/14 08:59:27;;;;;;;1.52;0.60;;;;;;;;;;5047391;28;20234;-63
2021/04/14 09:01:54;;;;;;;3.13;0.50;;;;;;;;;;5044642;28;20033;-63
2021/04/14 09:04:22;;;;;;;2.22;0.20;;;;;;;;;;5046909;28;20127;-62
2021/04/14 09:06:50;;;;;;;1.95;0.43;;;;;;;;;;5047069;28;20110;-62
2021/04/14 09:09:24;;;;;;;3.97;0.40;;;;;;;;;;5046301;28;20081;-61
2021/04/14 09:12:01;;;;;;;4.28;0.55;;;;;;;;;;5046913;28;20052;-63
2021/04/14 09:14:30;;;;;;;2.60;0.35;;;;;;;;;;5043976;28;20029;-63
2021/04/14 09:17:01;;;;;;;4.10;0.50;;;;;;;;;;5044392;28;20047;-62
2021/04/14 09:19:32;;;;;;;2.28;0.30;;;;;;;;;;5046283;28;20048;-62
2021/04/14 09:22:00;;;;;;;2.35;0.55;;;;;;;;;;5027026;28;20036;-62
2021/04/14 09:24:28;;;;;;;3.95;0.52;;;;;;;;;;5047316;28;20032;-63
2021/04/14 09:26:58;;;;;;;3.70;0.45;;;;;;;;;;5044549;28;20028;-63
2021/04/14 09:29:45;;;;;;;3.75;0.38;;;;;;;;;;5045349;28;20025;-63
2021/04/14 09:32:13;;;;;;;3.45;0.52;;;;;;;;;;5044798;28;20036;-61
2021/04/14 09:34:40;;;;;;;2.03;0.40;;;;;;;;;;5045595;28;20037;-62
2021/04/14 09:37:32;;;;;;;4.50;0.50;;;;;;;;;;5046531;28;20122;-62
2021/04/14 09:40:06;;;;;;;4.97;0.55;;;;;;;;;;5021745;28;20037;-61
2021/04/14 09:42:35;;;;;;;2.55;0.47;;;;;;;;;;5045065;28;20043;-60
2021/04/14 09:45:30;;;;;;;2.38;0.60;;;;;;;;;;5028436;28;20077;-61
2021/04/14 09:47:58;;;;;;;4.95;0.45;;;;;;;;;;5022613;28;20052;-62
2021/04/14 09:50:29;;;;;;;6.90;0.57;;;;;;;;;;5043348;28;20028;-62
2021/04/14 09:53:16;;;;;;;3.13;0.88;;;;;;;;;;5037682;28;20079;-61
2021/04/14 09:55:57;;;;;;;5.60;0.68;;;;;;;;;;5041360;28;20037;-61
2021/04/14 09:58:30;;;;;;;3.55;0.30;;;;;;;;;;5033555;28;20932;-61
2021/04/14 10:01:17;;;;;;;4.50;0.63;;;;;;;;;;5044270;28;20439;-62
2021/04/14 10:03:45;;;;;;;;;;;;;;;;;;5046171;28;20017;-61
2021/04/14 10:06:13;;;;;;;1.98;0.30;;;;;;;;;;5027709;28;19946;-61
2021/04/14 10:08:39;;;;;;;2.78;0.22;;;;;;;;;;5027866;28;20029;-61
2021/04/14 10:11:05;;;;;;;1.27;0.50;;;;;;;;;;5042881;28;20078;-62
2021/04/14 10:13:35;;;;;;;2.42;0.30;;;;;;;;;;5039255;28;20500;-61
2021/04/14 10:16:05;;;;;;;1.45;0.45;;;;;;;;;;5036296;28;20120;-61
2021/04/14 10:18:41;;;;;;;1.40;0.55;;;;;;;;;;5039876;28;20032;-60
2021/04/14 10:21:17;;;;;;;5.18;0.68;;;;;;;;;;5044974;28;20575;-58
2021/04/14 10:23:45;;;;;;;1.25;0.60;;;;;;;;;;5016801;28;20123;-60
2021/04/14 10:26:13;;;;;;;2.83;0.50;;;;;;;;;;5035581;28;20038;-59
2021/04/14 10:28:40;;;;;;;3.58;0.43;;;;;;;;;;5036216;28;20036;-60
2021/04/14 10:31:20;;;;;;;2.75;0.47;;;;;;;;;;5034264;28;20028;-60
2021/04/14 10:33:50;;;;;;;2.83;0.52;;;;;;;;;;5017040;28;20595;-59
2021/04/14 10:36:22;;;;;;;6.07;0.57;;;;;;;;;;5035747;28;20700;-59
2021/04/14 10:38:51;;;;;;;3.42;0.40;;;;;;;;;;5036247;28;20491;-60
2021/04/14 10:41:22;;;;;;;3.65;0.50;;;;;;;;;;5035963;28;20029;-60
2021/04/14 10:43:50;;;;;;;2.42;0.60;;;;;;;;;;5035324;28;20043;-60
2021/04/14 10:46:20;;;;;;;4.55;0.50;;;;;;;;;;5032894;28;20029;-60
2021/04/14 10:48:47;;;;;;;2.75;0.55;;;;;;;;;;5042307;28;20068;-60
2021/04/14 10:51:18;;;;;;;3.58;0.73;;;;;;;;;;5042877;28;20929;-61
2021/04/14 10:53:45;;;;;;;1.08;0.32;;;;;;;;;;5038880;28;21067;-60
2021/04/14 10:56:13;;;;;;;3.58;0.43;;;;;;;;;;5030138;28;20064;-60
2021/04/14 10:58:41;;;;;;;1.95;0.40;;;;;;;;;;5033063;28;20063;-59
2021/04/14 11:01:14;;;;;;;2.33;0.47;;;;;;;;;;5036980;28;20052;-59
2021/04/14 11:03:44;;;;;;;1.75;0.60;;;;;;;;;;5031302;28;20041;-60
2021/04/14 11:06:12;;;;;;;2.63;0.47;;;;;;;;;;5031472;28;20415;-59
2021/04/14 11:08:41;;;;;;;1.50;0.40;;;;;;;;;;5039424;28;20044;-59
2021/04/14 11:11:07;;;;;;;1.85;0.43;;;;;;;;;;5044184;28;20043;-60
2021/04/14 11:13:36;;;;;;;4.97;0.47;;;;;;;;;;5028071;28;20036;-61
2021/04/14 11:16:10;;;;;;;2.80;0.40;;;;;;;;;;5043962;28;20043;-60
2021/04/14 11:18:39;;;;;;;5.05;0.32;;;;;;;;;;5045572;28;20070;-60
2021/04/14 11:21:20;;;;;;;3.60;0.40;;;;;;;;;;5026874;28;20029;-60
2021/04/14 11:23:46;;;;;;;1.95;0.75;;;;;;;;;;5045085;28;20251;-60
2021/04/14 11:26:13;;;;;;;3.42;0.30;;;;;;;;;;5045177;28;20040;-60
2021/04/14 11:28:41;;;;;;;2.20;0.52;;;;;;;;;;5041047;28;20047;-60
2021/04/14 11:31:07;;;;;;;2.40;0.30;;;;;;;;;;5027837;28;22018;-60
2021/04/14 11:33:45;;;;;;;2.85;0.60;;;;;;;;;;5042852;28;20040;-60
2021/04/14 11:36:18;;;;;;;2.95;0.30;;;;;;;;;;5042353;28;20059;-60
2021/04/14 11:38:55;;;;;;;5.05;0.63;;;;;;;;;;5041270;28;20805;-60
2021/04/14 11:41:20;;;;;;;3.97;0.55;;;;;;;;;;5040299;28;20574;-60
2021/04/14 11:43:48;;;;;;;2.15;0.30;;;;;;;;;;5043054;28;20424;-60
2021/04/14 11:46:20;;;;;;;3.85;0.55;;;;;;;;;;5042328;28;20064;-60
2021/04/14 11:48:56;;;;;;;2.20;0.80;;;;;;;;;;5043852;28;20032;-60
2021/04/14 11:51:32;;;;;;;2.15;0.40;;;;;;;;;;5040676;28;20068;-60
2021/04/14 11:54:06;;;;;;;2.38;0.43;;;;;;;;;;5043133;28;20097;-60
2021/04/14 11:56:38;;;;;;;1.48;0.45;;;;;;;;;;5038784;28;20758;-60
2021/04/14 11:59:06;;;;;;;2.45;0.43;;;;;;;;;;5041912;28;20029;-60
2021/04/14 12:01:33;;;;;;;3.88;0.73;;;;;;;;;;5039814;28;20035;-60
2021/04/14 12:04:09;;;;;;;2.55;0.60;;;;;;;;;;5033998;28;20116;-61
2021/04/14 12:06:39;;;;;;;5.20;0.70;;;;;;;;;;5040904;28;20105;-59
2021/04/14 12:09:04;;;;;;;2.25;0.30;;;;;;;;;;5041609;28;20651;-61
2021/04/14 12:11:30;;;;;;;2.85;0.43;;;;;;;;;;5043280;28;20033;-60
2021/04/14 12:13:56;;;;;;;2.72;0.40;;;;;;;;;;5054174;28;20025;-60
2021/04/14 12:16:24;;;;;;;4.35;0.63;;;;;;;;;;5044126;28;20098;-60
2021/04/14 12:18:55;;;;;;;2.20;0.55;;;;;;;;;;5048976;28;20040;-61
2021/04/14 12:21:23;;;;;;;2.63;0.40;;;;;;;;;;5040729;28;20075;-61
2021/04/14 12:23:51;;;;;;;1.80;0.30;;;;;;;;;;5028523;28;20056;-60
2021/04/14 12:26:19;;;;;;;0.65;0.40;;;;;;;;;;5030850;28;20039;-60
2021/04/14 12:28:49;;;;;;;2.13;0.57;;;;;;;;;;5045375;28;20078;-60
2021/04/14 12:31:14;;;;;;;3.30;0.52;;;;;;;;;;5048812;28;20606;-59
2021/04/14 12:33:45;;;;;;;3.28;0.32;;;;;;;;;;5028743;28;20600;-61
2021/04/14 12:36:11;;;;;;;8.02;0.63;;;;;;;;;;5045938;28;20048;-61
2021/04/14 12:38:39;;;;;;;4.85;0.65;;;;;;;;;;5046401;28;20749;-60
2021/04/14 12:41:07;;;;;;;4.97;0.73;;;;;;;;;;5046050;28;20063;-61
2021/04/14 12:43:35;;;;;;;2.22;0.38;;;;;;;;;;5039087;28;20135;-61
2021/04/14 12:46:00;;;;;;;1.35;0.32;;;;;;;;;;5045013;28;20024;-61
2021/04/14 12:48:29;;;;;;;2.42;0.52;;;;;;;;;;5049240;28;20020;-60
2021/04/14 12:51:12;;;;;;;1.23;0.40;;;;;;;;;;5045158;28;20059;-60
2021/04/14 12:53:43;;;;;;;5.53;0.67;;;;;;;;;;5046857;28;20051;-60
2021/04/14 12:56:14;;;;;;;1.17;0.20;;;;;;;;;;5045672;28;20036;-61
2021/04/14 12:58:42;;;;;;;3.45;0.50;;;;;;;;;;5032312;28;20040;-60
2021/04/14 13:01:16;;;;;;;1.65;0.40;;;;;;;;;;5044182;28;20044;-60
2021/04/14 13:03:45;;;;;;;0.35;0.20;;;;;;;;;;5047590;28;20404;-60
2021/04/14 13:06:16;;;;;;;1.40;0.35;;;;;;;;;;5044690;28;20537;-60
2021/04/14 13:08:42;;;;;;;1.33;0.30;;;;;;;;;;5029811;28;20033;-60
2021/04/14 13:11:14;;;;;;;1.15;0.30;;;;;;;;;;5045452;28;20037;-61
2021/04/14 13:13:39;;;;;;;1.27;0.40;;;;;;;;;;5044657;28;20031;-60
2021/04/14 13:16:10;;;;;;;2.53;0.35;;;;;;;;;;5042710;28;20094;-60
2021/04/14 13:18:41;;;;;;;1.45;0.45;;;;;;;;;;5044322;28;20029;-60
2021/04/14 13:21:09;;;;;;;2.92;0.60;;;;;;;;;;5037050;28;20029;-61
2021/04/14 13:23:42;;;;;;;4.57;0.55;;;;;;;;;;5046687;28;20055;-61
2021/04/14 13:26:11;;;;;;;3.38;0.57;;;;;;;;;;5045761;28;20436;-61
2021/04/14 13:28:55;;;;;;;0.65;0.20;;;;;;;;;;5045516;28;20955;-60
2021/04/14 13:31:33;;;;;;;3.10;0.77;;;;;;;;;;5041238;28;20043;-59
2021/04/14 13:34:22;;;;;;;2.60;0.55;;;;;;;;;;5046747;28;20029;-59
2021/04/14 13:37:04;;;;;;;1.08;0.20;;;;;;;;;;5017463;28;20140;-60
2021/04/14 13:39:35;;;;;;;1.20;0.20;;;;;;;;;;5044400;28;20029;-59
2021/04/14 13:42:08;;;;;;;1.67;0.50;;;;;;;;;;5046519;28;20382;-58
2021/04/14 13:44:44;;;;;;;1.00;0.25;;;;;;;;;;5045858;28;20033;-60
2021/04/14 13:47:15;;;;;;;2.90;0.43;;;;;;;;;;5047553;28;20020;-60
2021/04/14 13:49:44;;;;;;;5.30;0.60;;;;;;;;;;5045343;28;20707;-60
2021/04/14 13:52:16;;;;;;;2.15;0.50;;;;;;;;;;5046450;28;20044;-60
2021/04/14 13:54:41;;;;;;;1.85;0.40;;;;;;;;;;5044305;28;20044;-59
2021/04/14 13:57:13;;;;;;;4.70;0.35;;;;;;;;;;5045995;28;20028;-60
2021/04/14 13:59:56;;;;;;;2.42;0.47;;;;;;;;;;5047222;28;20025;-60
2021/04/14 14:02:36;;;;;;;5.45;0.52;;;;;;;;;;5045654;28;20041;-60
2021/04/14 14:05:05;;;;;;;1.05;0.30;;;;;;;;;;5044167;28;20068;-60
2021/04/14 14:07:40;;;;;;;2.65;0.40;;;;;;;;;;5035605;28;20506;-60
2021/04/14 14:10:27;;;;;;;2.15;0.22;;;;;;;;;;5044523;28;20028;-60
2021/04/14 14:13:03;;;;;;;2.83;0.30;;;;;;;;;;5043059;28;20039;-60
2021/04/14 14:15:30;;;;;;;3.93;0.50;;;;;;;;;;5037886;28;20060;-60
2021/04/14 14:17:56;;;;;;;5.13;0.70;;;;;;;;;;5046565;28;20418;-60
2021/04/14 14:20:26;;;;;;;1.70;0.50;;;;;;;;;;5028945;28;20039;-60
2021/04/14 14:23:03;;;;;;;1.17;0.35;;;;;;;;;;5019871;28;20446;-62
2021/04/14 14:25:28;;;;;;;3.30;0.40;;;;;;;;;;5045572;28;20029;-60
2021/04/14 14:27:53;;;;;;;1.73;0.22;;;;;;;;;;5044497;28;20704;-60
2021/04/14 14:30:19;;;;;;;1.48;0.30;;;;;;;;;;5042101;28;20155;-60
2021/04/14 14:32:47;;;;;;;2.90;0.73;;;;;;;;;;5025173;28;20500;-60
2021/04/14 14:35:18;;;;;;;2.47;0.60;;;;;;;;;;5040540;28;20060;-59
2021/04/14 14:37:54;;;;;;;6.28;0.63;;;;;;;;;;5043264;28;20052;-58
2021/04/14 14:40:19;;;;;;;4.55;0.60;;;;;;;;;;5044270;28;21453;-58
2021/04/14 14:42:45;;;;;;;6.97;0.70;;;;;;;;;;5042193;28;20024;-58
2021/04/14 14:45:17;;;;;;;1.45;0.32;;;;;;;;;;5043320;28;20043;-59
2021/04/14 14:47:47;;;;;;;1.17;0.22;;;;;;;;;;5042681;28;20036;-59
2021/04/14 14:50:17;;;;;;;2.08;0.40;;;;;;;;;;5040089;28;20032;-59
2021/04/14 14:52:44;;;;;;;3.70;0.50;;;;;;;;;;5039414;28;20025;-59
2021/04/14 14:55:14;;;;;;;3.08;0.57;;;;;;;;;;5040730;28;20067;-59
2021/04/14 14:57:45;;;;;;;4.15;0.60;;;;;;;;;;5039497;28;20050;-59
2021/04/14 15:00:18;;;;;;;1.77;0.40;;;;;;;;;;5043556;28;20028;-59